createdAt,value
2022-11-10T18:23:33.316Z,9.05
2022-11-10T18:24:33.184Z,9.05
2022-11-10T18:26:37.150Z,8.99
2022-11-10T18:27:37.114Z,9.09
2022-11-10T18:28:37.092Z,8.95
2022-11-10T18:29:37.079Z,8.95
2022-11-10T18:30:37.056Z,8.86
2022-11-10T18:31:37.040Z,8.90
2022-11-10T18:32:37.018Z,8.84
2022-11-10T18:33:37.016Z,8.87
2022-11-10T18:34:36.980Z,8.86
2022-11-10T18:35:36.965Z,8.92
2022-11-10T18:36:36.944Z,8.82
2022-11-10T18:37:39.224Z,8.87
2022-11-10T18:38:37.022Z,8.97
2022-11-10T18:39:36.891Z,8.84
2022-11-10T18:40:36.871Z,8.93
2022-11-10T18:41:36.853Z,8.96
2022-11-10T18:42:36.835Z,9.00
2022-11-10T18:43:36.817Z,9.00
2022-11-10T18:44:36.799Z,8.93
2022-11-10T18:45:36.788Z,8.99
2022-11-10T18:46:36.760Z,8.97
2022-11-10T18:47:36.747Z,8.95
2022-11-10T18:48:37.497Z,8.92
2022-11-10T18:49:36.708Z,8.82
2022-11-10T18:50:36.691Z,8.84
2022-11-10T18:51:36.675Z,8.71
2022-11-10T18:52:36.657Z,8.75
2022-11-10T18:53:38.361Z,8.74
2022-11-10T18:54:36.727Z,8.74
2022-11-10T18:55:36.933Z,8.72
2022-11-10T18:56:36.589Z,8.63
2022-11-10T18:57:36.579Z,8.50
2022-11-10T18:58:36.559Z,8.57
2022-11-10T18:59:36.547Z,8.53
2022-11-10T19:00:36.526Z,8.60
2022-11-10T19:01:36.558Z,8.57
2022-11-10T19:02:36.479Z,8.50
2022-11-10T19:03:36.460Z,8.45
2022-11-10T19:04:36.466Z,8.53
2022-11-10T19:05:36.425Z,8.45
2022-11-10T19:06:36.469Z,8.39
2022-11-10T19:07:36.388Z,8.36
2022-11-10T19:08:36.381Z,8.44
2022-11-10T19:09:36.359Z,8.28
2022-11-10T19:10:36.440Z,8.34
2022-11-10T19:11:36.312Z,8.28
2022-11-10T19:12:36.298Z,8.26
2022-11-10T19:13:36.283Z,8.24
2022-11-10T19:14:36.260Z,8.21
2022-11-10T19:15:36.243Z,8.08
2022-11-10T19:16:36.225Z,8.20
2022-11-10T19:17:36.207Z,8.13
2022-11-10T19:18:36.188Z,8.09
2022-11-10T19:19:36.178Z,8.11
2022-11-10T19:20:36.153Z,8.08
2022-11-10T19:21:36.139Z,8.03
2022-11-10T19:22:36.126Z,8.05
2022-11-10T19:23:36.097Z,7.95
2022-11-10T19:24:53.761Z,7.96
2022-11-10T19:25:36.060Z,7.91
2022-11-10T19:26:36.149Z,7.87
2022-11-10T19:27:36.034Z,7.87
2022-11-10T19:28:36.005Z,7.84
2022-11-10T19:29:35.989Z,7.81
2022-11-10T19:30:35.973Z,7.69
2022-11-10T19:31:35.954Z,7.61
2022-11-10T19:32:35.935Z,7.70
2022-11-10T19:33:35.914Z,7.62
2022-11-10T19:34:35.910Z,7.53
2022-11-10T19:35:35.878Z,7.55
2022-11-10T19:36:35.872Z,7.55
2022-11-10T19:37:35.851Z,7.40
2022-11-10T19:38:35.840Z,7.43
2022-11-10T19:39:35.819Z,7.43
2022-11-10T19:40:35.803Z,7.32
2022-11-10T19:41:35.767Z,7.33
2022-11-10T19:42:35.851Z,7.31
2022-11-10T19:43:35.734Z,7.28
2022-11-10T19:44:35.719Z,7.23
2022-11-10T19:45:35.708Z,7.21
2022-11-10T19:46:35.682Z,7.13
2022-11-10T19:47:35.655Z,7.11
2022-11-10T19:48:35.643Z,7.08
2022-11-10T19:49:35.625Z,7.03
2022-11-10T19:50:35.610Z,7.01
2022-11-10T19:51:35.585Z,7.00
2022-11-10T19:52:35.612Z,6.92
2022-11-10T19:53:35.553Z,6.90
2022-11-10T19:54:35.534Z,6.87
2022-11-10T19:55:35.516Z,6.82
2022-11-10T19:56:35.494Z,6.83
2022-11-10T19:57:35.480Z,6.75
2022-11-10T19:58:35.552Z,6.85
2022-11-10T19:59:35.443Z,6.75
2022-11-10T20:00:35.422Z,6.72
2022-11-10T20:01:35.427Z,6.72
2022-11-10T20:02:35.387Z,6.82
2022-11-10T20:03:35.364Z,6.83
2022-11-10T20:04:35.344Z,6.71
2022-11-10T20:05:35.326Z,6.70
2022-11-10T20:06:35.339Z,6.65
2022-11-10T20:07:35.288Z,6.59
2022-11-10T20:08:35.277Z,6.65
2022-11-10T20:09:35.250Z,6.52
2022-11-10T20:10:35.233Z,6.59
2022-11-10T20:11:35.216Z,6.59
2022-11-10T20:12:35.199Z,6.52
2022-11-10T20:13:35.179Z,6.49
2022-11-10T20:14:35.267Z,6.44
2022-11-10T20:15:35.144Z,6.34
2022-11-10T20:16:35.121Z,6.46
2022-11-10T20:17:35.106Z,6.36
2022-11-10T20:18:35.087Z,6.39
2022-11-10T20:19:39.336Z,6.29
2022-11-10T20:20:35.048Z,6.26
2022-11-10T20:21:35.028Z,6.32
2022-11-10T20:22:35.009Z,6.29
2022-11-10T20:23:34.992Z,6.28
2022-11-10T20:24:34.983Z,6.16
2022-11-10T20:25:34.952Z,6.19
2022-11-10T20:26:34.941Z,6.13
2022-11-10T20:27:34.913Z,6.16
2022-11-10T20:28:34.898Z,6.17
2022-11-10T20:29:34.876Z,6.17
2022-11-10T20:30:34.965Z,6.16
2022-11-10T20:31:35.751Z,6.10
2022-11-10T20:32:34.821Z,6.13
2022-11-10T20:33:34.798Z,6.05
2022-11-10T20:34:34.783Z,6.19
2022-11-10T20:35:34.762Z,6.13
2022-11-10T20:36:34.748Z,6.12
2022-11-10T20:37:34.729Z,6.06
2022-11-10T20:38:34.708Z,6.12
2022-11-10T20:39:34.700Z,6.07
2022-11-10T20:40:48.123Z,6.10
2022-11-10T20:41:34.647Z,6.09
2022-11-10T20:42:37.829Z,6.16
2022-11-10T20:43:34.646Z,6.15
2022-11-10T20:44:34.590Z,6.07
2022-11-10T20:45:34.573Z,6.01
2022-11-10T20:46:53.361Z,6.02
2022-11-10T20:47:34.645Z,6.02
2022-11-10T20:48:34.527Z,6.05
2022-11-10T20:49:34.501Z,6.01
2022-11-10T20:50:34.475Z,6.07
2022-11-10T20:51:34.474Z,6.09
2022-11-10T20:52:34.460Z,6.10
2022-11-10T20:53:34.429Z,6.12
2022-11-10T20:54:34.402Z,6.05
2022-11-10T20:55:52.739Z,6.01
2022-11-10T20:56:34.361Z,6.02
2022-11-10T20:57:34.346Z,5.99
2022-11-10T20:58:34.326Z,6.07
2022-11-10T20:59:34.303Z,6.05
2022-11-10T21:00:34.290Z,6.06
2022-11-10T21:01:34.369Z,6.06
2022-11-10T21:02:34.389Z,6.01
2022-11-10T21:03:34.237Z,6.09
2022-11-10T21:04:37.850Z,6.01
2022-11-10T21:05:34.192Z,6.06
2022-11-10T21:06:34.250Z,6.01
2022-11-10T21:07:34.164Z,6.02
2022-11-10T21:08:34.142Z,6.07
2022-11-10T21:09:34.116Z,6.02
2022-11-10T21:10:34.123Z,6.01
2022-11-10T21:11:34.078Z,5.98
2022-11-10T21:12:34.062Z,6.06
2022-11-10T21:13:34.043Z,6.05
2022-11-10T21:14:34.020Z,5.91
2022-11-10T21:15:34.004Z,5.98
2022-11-10T21:16:33.985Z,5.98
2022-11-10T21:17:33.974Z,6.01
2022-11-10T21:18:34.045Z,5.95
2022-11-10T21:19:33.920Z,5.97
2022-11-10T21:20:33.908Z,5.92
2022-11-10T21:21:33.925Z,6.02
2022-11-10T21:22:33.883Z,5.95
2022-11-10T21:23:33.850Z,6.01
2022-11-10T21:24:33.837Z,5.92
2022-11-10T21:25:33.807Z,5.97
2022-11-10T21:26:33.795Z,5.99
2022-11-10T21:27:33.774Z,5.92
2022-11-10T21:28:33.770Z,5.97
2022-11-10T21:29:33.735Z,5.90
2022-11-10T21:30:33.720Z,5.91
2022-11-10T21:31:33.695Z,5.92
2022-11-10T21:32:33.692Z,5.88
2022-11-10T21:33:33.660Z,5.81
2022-11-10T21:34:33.747Z,5.87
2022-11-10T21:35:37.850Z,5.83
2022-11-10T21:36:33.629Z,5.80
2022-11-10T21:37:33.581Z,5.76
2022-11-10T21:38:33.565Z,5.72
2022-11-10T21:39:33.542Z,5.77
2022-11-10T21:40:33.531Z,5.74
2022-11-10T21:41:33.505Z,5.77
2022-11-10T21:42:35.614Z,5.72
2022-11-10T21:43:33.477Z,5.74
2022-11-10T21:44:33.450Z,5.72
2022-11-10T21:45:33.429Z,5.61
2022-11-10T21:46:33.424Z,5.62
2022-11-10T21:47:33.391Z,5.59
2022-11-10T21:48:33.369Z,5.62
2022-11-10T21:49:33.362Z,5.49
2022-11-10T21:50:33.433Z,5.55
2022-11-10T21:51:33.319Z,5.55
2022-11-10T21:52:33.296Z,5.54
2022-11-10T21:53:33.275Z,5.54
2022-11-10T21:54:33.253Z,5.54
2022-11-10T21:55:33.236Z,5.46
2022-11-10T21:56:33.218Z,5.51
2022-11-10T21:57:33.196Z,5.54
2022-11-10T21:58:33.178Z,5.49
2022-11-10T21:59:33.171Z,5.44
2022-11-10T22:00:33.140Z,5.37
2022-11-10T22:01:33.178Z,5.51
2022-11-10T22:02:33.103Z,5.38
2022-11-10T22:03:33.094Z,5.40
2022-11-10T22:04:33.074Z,5.41
2022-11-10T22:05:33.451Z,5.33
2022-11-10T22:06:33.164Z,5.41
2022-11-10T22:07:33.005Z,5.37
2022-11-10T22:08:32.990Z,5.31
2022-11-10T22:09:32.969Z,5.34
2022-11-10T22:10:32.951Z,5.28
2022-11-10T22:11:32.922Z,5.23
2022-11-10T22:12:32.907Z,5.25
2022-11-10T22:13:32.890Z,5.26
2022-11-10T22:14:32.870Z,5.26
2022-11-10T22:15:32.853Z,5.19
2022-11-10T22:16:32.829Z,5.22
2022-11-10T22:17:32.822Z,5.19
2022-11-10T22:18:32.793Z,5.18
2022-11-10T22:19:32.774Z,5.12
2022-11-10T22:20:32.755Z,5.05
2022-11-10T22:21:32.732Z,5.07
2022-11-10T22:22:32.805Z,5.04
2022-11-10T22:23:32.692Z,5.04
2022-11-10T22:24:32.676Z,4.97
2022-11-10T22:25:32.653Z,4.95
2022-11-10T22:26:32.642Z,4.89
2022-11-10T22:27:32.613Z,4.90
2022-11-10T22:28:32.598Z,4.89
2022-11-10T22:29:32.577Z,4.83
2022-11-10T22:30:32.559Z,4.84
2022-11-10T22:31:32.538Z,4.87
2022-11-10T22:32:32.527Z,4.84
2022-11-10T22:33:32.497Z,4.86
2022-11-10T22:34:32.486Z,4.78
2022-11-10T22:35:32.455Z,4.74
2022-11-10T22:36:32.439Z,4.70
2022-11-10T22:37:32.420Z,4.78
2022-11-10T22:38:32.497Z,4.86
2022-11-10T22:39:32.443Z,4.78
2022-11-10T22:40:32.364Z,4.76
2022-11-10T22:41:32.342Z,4.78
2022-11-10T22:42:32.326Z,4.76
2022-11-10T22:43:32.299Z,4.75
2022-11-10T22:44:32.279Z,4.76
2022-11-10T22:45:32.288Z,4.70
2022-11-10T22:46:32.240Z,4.83
2022-11-10T22:47:32.218Z,4.66
2022-11-10T22:48:32.199Z,4.66
2022-11-10T22:49:32.178Z,4.66
2022-11-10T22:50:32.161Z,4.67
2022-11-10T22:51:32.139Z,4.61
2022-11-10T22:52:32.123Z,4.64
2022-11-10T22:53:32.124Z,4.66
2022-11-10T22:54:32.185Z,4.61
2022-11-10T22:55:32.070Z,4.50
2022-11-10T22:56:32.041Z,4.50
2022-11-10T22:57:32.024Z,4.56
2022-11-10T22:58:32.004Z,4.48
2022-11-10T22:59:31.980Z,4.48
2022-11-10T23:00:31.965Z,4.52
2022-11-10T23:01:32.031Z,4.48
2022-11-10T23:02:31.929Z,4.39
2022-11-10T23:03:31.902Z,4.49
2022-11-10T23:04:31.883Z,4.40
2022-11-10T23:05:31.865Z,4.42
2022-11-10T23:06:31.843Z,4.40
2022-11-10T23:07:31.835Z,4.40
2022-11-10T23:08:31.804Z,4.38
2022-11-10T23:09:31.781Z,4.31
2022-11-10T23:10:31.866Z,4.27
2022-11-10T23:11:31.742Z,4.34
2022-11-10T23:12:31.723Z,4.28
2022-11-10T23:13:31.705Z,4.30
2022-11-10T23:14:31.686Z,4.20
2022-11-10T23:15:31.663Z,4.28
2022-11-10T23:16:31.644Z,4.25
2022-11-10T23:17:31.626Z,4.28
2022-11-10T23:18:31.602Z,4.22
2022-11-10T23:19:31.582Z,4.32
2022-11-10T23:20:31.565Z,4.21
2022-11-10T23:21:31.543Z,4.20
2022-11-10T23:22:31.523Z,4.16
2022-11-10T23:23:31.508Z,4.25
2022-11-10T23:24:31.484Z,4.24
2022-11-10T23:25:31.466Z,4.22
2022-11-10T23:26:31.542Z,4.22
2022-11-10T23:27:31.423Z,4.20
2022-11-10T23:28:31.404Z,4.14
2022-11-10T23:29:31.385Z,4.16
2022-11-10T23:30:31.363Z,4.28
2022-11-10T23:31:31.343Z,4.14
2022-11-10T23:32:31.324Z,4.13
2022-11-10T23:33:33.027Z,4.20
2022-11-10T23:34:31.284Z,4.18
2022-11-10T23:35:31.266Z,4.13
2022-11-10T23:36:31.244Z,4.20
2022-11-10T23:37:31.226Z,4.07
2022-11-10T23:38:31.209Z,4.14
2022-11-10T23:39:31.184Z,4.16
2022-11-10T23:40:31.164Z,4.20
2022-11-10T23:41:31.143Z,4.04
2022-11-10T23:42:33.096Z,4.04
2022-11-10T23:43:31.102Z,4.07
2022-11-10T23:44:31.085Z,4.12
2022-11-10T23:46:00.139Z,4.12
2022-11-10T23:46:31.046Z,4.14
2022-11-10T23:47:31.024Z,4.18
2022-11-10T23:48:31.005Z,4.13
2022-11-10T23:49:30.989Z,4.10
2022-11-10T23:50:30.965Z,4.12
2022-11-10T23:51:30.948Z,4.12
2022-11-10T23:52:30.926Z,4.16
2022-11-10T23:53:30.905Z,4.09
2022-11-10T23:54:30.883Z,4.20
2022-11-10T23:55:30.862Z,4.09
2022-11-10T23:56:30.842Z,4.16
2022-11-10T23:57:30.823Z,4.10
2022-11-10T23:58:30.899Z,4.14
2022-11-10T23:59:30.781Z,4.13
